createdAt,value
2022-09-20T00:00:01.809Z,30.7290
2022-09-20T00:00:13.018Z,30.7600
2022-09-20T00:00:24.210Z,30.7670
2022-09-20T00:00:35.334Z,30.7160
2022-09-20T00:00:46.541Z,30.7110
2022-09-20T00:00:57.829Z,30.7050
2022-09-20T00:01:09.126Z,30.6940
2022-09-20T00:01:20.395Z,30.7270
2022-09-20T00:01:31.633Z,30.8090
2022-09-20T00:01:43.029Z,30.8860
2022-09-20T00:01:54.163Z,30.8810
2022-09-20T00:02:05.335Z,30.8040
2022-09-20T00:02:16.454Z,30.7490
2022-09-20T00:02:27.597Z,30.7020
2022-09-20T00:02:38.719Z,30.6810
2022-09-20T00:02:49.853Z,30.7150
2022-09-20T00:03:01.267Z,30.7260
2022-09-20T00:03:12.394Z,30.8470
2022-09-20T00:03:23.520Z,30.8860
2022-09-20T00:03:34.651Z,30.8690
2022-09-20T00:03:45.956Z,30.8140
2022-09-20T00:03:57.081Z,30.7830
2022-09-20T00:04:08.459Z,30.7770
2022-09-20T00:04:19.806Z,30.8040
2022-09-20T00:04:30.938Z,30.8360
2022-09-20T00:04:42.186Z,30.8190
2022-09-20T00:04:53.403Z,30.8030
2022-09-20T00:05:04.612Z,30.7600
2022-09-20T00:05:15.787Z,30.7210
2022-09-20T00:05:26.997Z,30.7480
2022-09-20T00:05:38.128Z,30.8420
2022-09-20T00:05:49.481Z,30.8880
2022-09-20T00:06:00.626Z,30.8930
2022-09-20T00:06:11.767Z,30.8300
2022-09-20T00:06:22.928Z,30.8610
2022-09-20T00:06:34.054Z,30.9770
2022-09-20T00:06:45.176Z,30.9920
2022-09-20T00:06:56.326Z,30.9480
2022-09-20T00:07:07.444Z,30.8650
2022-09-20T00:07:18.608Z,30.8420
2022-09-20T00:07:29.736Z,30.8260
2022-09-20T00:07:40.873Z,30.7990
2022-09-20T00:07:52.143Z,30.8150
2022-09-20T00:08:03.282Z,30.8590
2022-09-20T00:08:14.417Z,30.7880
2022-09-20T00:08:25.575Z,30.7780
2022-09-20T00:08:36.708Z,30.8000
2022-09-20T00:08:47.891Z,30.7840
2022-09-20T00:08:59.091Z,30.7360
2022-09-20T00:09:10.213Z,30.7180
2022-09-20T00:09:21.453Z,30.6820
2022-09-20T00:09:32.584Z,30.6600
2022-09-20T00:09:43.723Z,30.6920
2022-09-20T00:09:55.006Z,30.6480
2022-09-20T00:10:06.145Z,30.6030
2022-09-20T00:10:17.276Z,30.6430
2022-09-20T00:10:28.414Z,30.7580
2022-09-20T00:10:39.569Z,30.7480
2022-09-20T00:10:50.758Z,30.6640
2022-09-20T00:11:01.888Z,30.6370
2022-09-20T00:11:13.021Z,30.6030
2022-09-20T00:11:24.143Z,30.6250
2022-09-20T00:11:35.283Z,30.6430
2022-09-20T00:11:46.453Z,30.6250
2022-09-20T00:11:57.801Z,30.5870
2022-09-20T00:12:08.948Z,30.5530
2022-09-20T00:12:20.078Z,30.5560
2022-09-20T00:12:31.250Z,30.5450
2022-09-20T00:12:42.385Z,30.5240
2022-09-20T00:12:53.514Z,30.5260
2022-09-20T00:13:04.645Z,30.5450
2022-09-20T00:13:15.775Z,30.5230
2022-09-20T00:13:26.927Z,30.5250
2022-09-20T00:13:38.053Z,30.5460
2022-09-20T00:13:49.180Z,30.5460
2022-09-20T00:14:00.448Z,30.5830
2022-09-20T00:14:11.575Z,30.6010
2022-09-20T00:14:22.744Z,30.5600
2022-09-20T00:14:33.875Z,30.5680
2022-09-20T00:14:44.997Z,30.5610
2022-09-20T00:14:56.118Z,30.5830
2022-09-20T00:15:07.269Z,30.6030
2022-09-20T00:15:18.380Z,30.7480
2022-09-20T00:15:29.512Z,30.8090
2022-09-20T00:15:40.684Z,30.7910
2022-09-20T00:15:51.820Z,30.7930
2022-09-20T00:16:03.090Z,30.8370
2022-09-20T00:16:14.328Z,30.8190
2022-09-20T00:16:25.564Z,30.8360
2022-09-20T00:16:36.781Z,30.8400
2022-09-20T00:16:47.979Z,30.8720
2022-09-20T00:16:59.141Z,30.8980
2022-09-20T00:17:10.305Z,30.9090
2022-09-20T00:17:21.497Z,30.7990
2022-09-20T00:17:32.687Z,30.7590
2022-09-20T00:17:43.823Z,30.6870
2022-09-20T00:17:54.959Z,30.6390
2022-09-20T00:18:06.374Z,30.6080
2022-09-20T00:18:17.506Z,30.6420
2022-09-20T00:18:28.697Z,30.7320
2022-09-20T00:18:39.888Z,30.7430
2022-09-20T00:18:51.025Z,30.6380
2022-09-20T00:19:02.156Z,30.5610
2022-09-20T00:19:13.280Z,30.6030
2022-09-20T00:19:24.440Z,30.6750
2022-09-20T00:19:35.567Z,30.6700
2022-09-20T00:19:46.689Z,30.7260
2022-09-20T00:19:57.827Z,30.7800
2022-09-20T00:20:09.104Z,30.7430
2022-09-20T00:20:20.238Z,30.7600
2022-09-20T00:20:31.368Z,30.8190
2022-09-20T00:20:42.502Z,30.8140
2022-09-20T00:20:53.665Z,30.8740
2022-09-20T00:21:04.859Z,30.9080
2022-09-20T00:21:16.051Z,30.9000
2022-09-20T00:21:27.223Z,30.8720
2022-09-20T00:21:38.364Z,30.8930
2022-09-20T00:21:49.504Z,30.8370
2022-09-20T00:22:00.652Z,30.8150
2022-09-20T00:22:11.909Z,30.7480
2022-09-20T00:22:23.045Z,30.7150
2022-09-20T00:22:34.183Z,30.6230
2022-09-20T00:22:45.315Z,30.5890
2022-09-20T00:22:56.439Z,30.5520
2022-09-20T00:23:07.579Z,30.6220
2022-09-20T00:23:18.686Z,30.7380
2022-09-20T00:23:29.821Z,30.7100
2022-09-20T00:23:41.016Z,30.7320
2022-09-20T00:23:52.215Z,30.7360
2022-09-20T00:24:03.342Z,30.7250
2022-09-20T00:24:14.667Z,30.7000
2022-09-20T00:24:25.834Z,30.7110
2022-09-20T00:24:37.003Z,30.6950
2022-09-20T00:24:49.120Z,30.6950
2022-09-20T00:25:00.407Z,30.7580
2022-09-20T00:25:11.566Z,30.6970
2022-09-20T00:25:22.704Z,30.6910
2022-09-20T00:25:33.843Z,30.7630
2022-09-20T00:25:44.970Z,30.7470
2022-09-20T00:25:56.103Z,30.7130
2022-09-20T00:26:07.233Z,30.6640
2022-09-20T00:26:18.495Z,30.6300
2022-09-20T00:26:29.663Z,30.6480
2022-09-20T00:26:40.846Z,30.6420
2022-09-20T00:26:51.983Z,30.6040
2022-09-20T00:27:03.117Z,30.5880
2022-09-20T00:27:14.252Z,30.6200
2022-09-20T00:27:25.384Z,30.6030
2022-09-20T00:27:36.511Z,30.5870
2022-09-20T00:27:47.645Z,30.6250
2022-09-20T00:27:58.793Z,30.6860
2022-09-20T00:28:09.929Z,30.7980
2022-09-20T00:28:21.208Z,30.7930
2022-09-20T00:28:32.343Z,30.7740
2022-09-20T00:28:43.473Z,30.7180
2022-09-20T00:28:54.628Z,30.7250
2022-09-20T00:29:05.809Z,30.6690
2022-09-20T00:29:17.010Z,30.5990
2022-09-20T00:29:28.236Z,30.6270
2022-09-20T00:29:39.406Z,30.7160
2022-09-20T00:29:50.540Z,30.7270
2022-09-20T00:30:01.681Z,30.7180
2022-09-20T00:30:12.825Z,30.7580
2022-09-20T00:30:24.102Z,30.7950
2022-09-20T00:30:35.243Z,30.8200
2022-09-20T00:30:46.380Z,30.8590
2022-09-20T00:30:57.551Z,30.8820
2022-09-20T00:31:08.708Z,30.8830
2022-09-20T00:31:19.854Z,30.8310
2022-09-20T00:31:31.019Z,30.8530
2022-09-20T00:31:42.159Z,30.8920
2022-09-20T00:31:53.358Z,30.9140
2022-09-20T00:32:04.590Z,30.9020
2022-09-20T00:32:15.803Z,30.9350
2022-09-20T00:32:27.169Z,30.9040
2022-09-20T00:32:38.301Z,30.8730
2022-09-20T00:32:49.479Z,30.8400
2022-09-20T00:33:00.608Z,30.8150
2022-09-20T00:33:11.731Z,30.8090
2022-09-20T00:33:22.866Z,30.8000
2022-09-20T00:33:34.009Z,30.8330
2022-09-20T00:33:45.174Z,30.8500
2022-09-20T00:33:56.391Z,30.8380
2022-09-20T00:34:07.582Z,30.8110
2022-09-20T00:34:18.674Z,30.8200
2022-09-20T00:34:29.961Z,30.8150
2022-09-20T00:34:41.090Z,30.8470
2022-09-20T00:34:52.218Z,30.7860
2022-09-20T00:35:03.353Z,30.7700
2022-09-20T00:35:14.481Z,30.7640
2022-09-20T00:35:25.653Z,30.8310
2022-09-20T00:35:36.781Z,30.8700
2022-09-20T00:35:47.912Z,30.8870
2022-09-20T00:35:59.040Z,30.9200
2022-09-20T00:36:10.164Z,30.9140
2022-09-20T00:36:21.326Z,30.8840
2022-09-20T00:36:32.671Z,30.8570
2022-09-20T00:36:43.875Z,30.7930
2022-09-20T00:36:55.008Z,30.8310
2022-09-20T00:37:06.161Z,30.8250
2022-09-20T00:37:17.329Z,30.8760
2022-09-20T00:37:28.450Z,30.9030
2022-09-20T00:37:39.581Z,30.8920
2022-09-20T00:37:50.706Z,30.8640
2022-09-20T00:38:01.842Z,30.8400
2022-09-20T00:38:12.998Z,30.8460
2022-09-20T00:38:24.130Z,30.8060
2022-09-20T00:38:35.406Z,30.7260
2022-09-20T00:38:46.544Z,30.6970
2022-09-20T00:38:57.679Z,30.7110
2022-09-20T00:39:08.812Z,30.7430
2022-09-20T00:39:19.948Z,30.8150
2022-09-20T00:39:31.104Z,30.8480
2022-09-20T00:39:42.293Z,30.8650
2022-09-20T00:39:53.508Z,30.8870
2022-09-20T00:40:04.720Z,30.8530
2022-09-20T00:40:16.002Z,30.8260
2022-09-20T00:40:27.315Z,30.8870
2022-09-20T00:40:38.703Z,30.9150
2022-09-20T00:40:49.821Z,30.9770
2022-09-20T00:41:01.009Z,30.9330
2022-09-20T00:41:12.216Z,30.8920
2022-09-20T00:41:23.414Z,30.9200
2022-09-20T00:41:34.612Z,30.8870
2022-09-20T00:41:45.811Z,30.9030
2022-09-20T00:41:56.936Z,30.8980
2022-09-20T00:42:08.070Z,30.8870
2022-09-20T00:42:19.206Z,30.8530
2022-09-20T00:42:30.328Z,30.7390
2022-09-20T00:42:41.645Z,30.6440
2022-09-20T00:42:52.779Z,30.6700
2022-09-20T00:43:03.915Z,30.7150
2022-09-20T00:43:15.085Z,30.8150
2022-09-20T00:43:26.221Z,30.8870
2022-09-20T00:43:37.365Z,30.9360
2022-09-20T00:43:48.503Z,30.8830
2022-09-20T00:43:59.646Z,30.8660
2022-09-20T00:44:10.767Z,30.8770
2022-09-20T00:44:21.904Z,30.8880
2022-09-20T00:44:33.069Z,30.9660
2022-09-20T00:44:44.332Z,30.9470
2022-09-20T00:44:55.478Z,30.8980
2022-09-20T00:45:06.609Z,30.8580
2022-09-20T00:45:17.736Z,30.8310
2022-09-20T00:45:28.930Z,30.7750
2022-09-20T00:45:40.100Z,30.7420
2022-09-20T00:45:51.309Z,30.7940
2022-09-20T00:46:02.611Z,30.8550
2022-09-20T00:46:13.867Z,30.8160
2022-09-20T00:46:25.145Z,30.8040
2022-09-20T00:46:36.288Z,30.7390
2022-09-20T00:46:47.564Z,30.7060
2022-09-20T00:46:58.681Z,30.6770
2022-09-20T00:47:09.809Z,30.6700
2022-09-20T00:47:20.932Z,30.7480
2022-09-20T00:47:32.061Z,30.7750
2022-09-20T00:47:43.250Z,30.8040
2022-09-20T00:47:54.379Z,30.7990
2022-09-20T00:48:05.514Z,30.7650
2022-09-20T00:48:16.644Z,30.7990
2022-09-20T00:48:27.760Z,30.8650
2022-09-20T00:48:38.929Z,30.8880
2022-09-20T00:48:50.199Z,30.8720
2022-09-20T00:49:01.340Z,30.8270
2022-09-20T00:49:12.533Z,30.7830
2022-09-20T00:49:23.731Z,30.7000
2022-09-20T00:49:34.898Z,30.7670
2022-09-20T00:49:46.019Z,30.7720
2022-09-20T00:49:57.149Z,30.6650
2022-09-20T00:50:08.288Z,30.6380
2022-09-20T00:50:19.412Z,30.6540
2022-09-20T00:50:30.534Z,30.6540
2022-09-20T00:50:41.673Z,30.6380
2022-09-20T00:50:52.949Z,30.6560
2022-09-20T00:51:04.079Z,30.7390
2022-09-20T00:51:15.221Z,30.7590
2022-09-20T00:51:26.384Z,30.7480
2022-09-20T00:51:37.492Z,30.6760
2022-09-20T00:51:48.691Z,30.7210
2022-09-20T00:51:59.889Z,30.7370
2022-09-20T00:52:11.032Z,30.7650
2022-09-20T00:52:22.135Z,30.8260
2022-09-20T00:52:33.272Z,30.8720
2022-09-20T00:52:44.403Z,30.8310
2022-09-20T00:52:55.723Z,30.8470
2022-09-20T00:53:06.858Z,30.8060
2022-09-20T00:53:17.988Z,30.7570
2022-09-20T00:53:29.169Z,30.7260
2022-09-20T00:53:40.366Z,30.6700
2022-09-20T00:53:51.573Z,30.6500
2022-09-20T00:54:02.700Z,30.6430
2022-09-20T00:54:16.998Z,30.6320
2022-09-20T00:54:30.933Z,30.7480
2022-09-20T00:54:42.086Z,30.7700
2022-09-20T00:54:53.234Z,30.7990
2022-09-20T00:55:04.512Z,30.7590
2022-09-20T00:55:15.644Z,30.6980
2022-09-20T00:55:26.767Z,30.6430
2022-09-20T00:55:37.904Z,30.6150
2022-09-20T00:55:49.047Z,30.6650
2022-09-20T00:56:00.211Z,30.6600
2022-09-20T00:56:11.335Z,30.7540
2022-09-20T00:56:22.461Z,30.7930
2022-09-20T00:56:33.592Z,30.8040
2022-09-20T00:56:44.726Z,30.7780
2022-09-20T00:56:55.891Z,30.7330
2022-09-20T00:57:07.229Z,30.6610
2022-09-20T00:57:18.365Z,30.6500
2022-09-20T00:57:29.495Z,30.6550
2022-09-20T00:57:40.625Z,30.6950
2022-09-20T00:57:51.764Z,30.6720
2022-09-20T00:58:02.893Z,30.6490
2022-09-20T00:58:14.041Z,30.6320
2022-09-20T00:58:25.171Z,30.6090
2022-09-20T00:58:36.297Z,30.5870
2022-09-20T00:58:47.429Z,30.5670
2022-09-20T00:58:58.564Z,30.5520
2022-09-20T00:59:09.833Z,30.5360
2022-09-20T00:59:20.971Z,30.5700
2022-09-20T00:59:32.102Z,30.5650
2022-09-20T00:59:43.283Z,30.5750
2022-09-20T00:59:54.452Z,30.5780
2022-09-20T01:00:05.649Z,30.6070
2022-09-20T01:00:16.852Z,30.6390
2022-09-20T01:00:27.987Z,30.7100
2022-09-20T01:00:39.125Z,30.7150
2022-09-20T01:00:50.366Z,30.8040
2022-09-20T01:01:01.537Z,30.8480
2022-09-20T01:01:12.942Z,30.9310
2022-09-20T01:01:24.140Z,30.9220
2022-09-20T01:01:35.301Z,30.8920
2022-09-20T01:01:46.472Z,30.9030
2022-09-20T01:01:57.701Z,30.8700
2022-09-20T01:02:08.940Z,30.8040
2022-09-20T01:02:20.087Z,30.7080
2022-09-20T01:02:31.344Z,30.7480
2022-09-20T01:02:42.539Z,30.7860
2022-09-20T01:02:53.668Z,30.7590
2022-09-20T01:03:04.845Z,30.7370
2022-09-20T01:03:16.104Z,30.8470
2022-09-20T01:03:27.225Z,30.8980
2022-09-20T01:03:38.362Z,30.8300
2022-09-20T01:03:49.494Z,30.7840
2022-09-20T01:04:00.633Z,30.8680
2022-09-20T01:04:11.773Z,30.8350
2022-09-20T01:04:22.935Z,30.8100
2022-09-20T01:04:34.054Z,30.7940
2022-09-20T01:04:45.215Z,30.7630
2022-09-20T01:04:56.339Z,30.7860
2022-09-20T01:05:07.465Z,30.7420
2022-09-20T01:05:18.736Z,30.7420
2022-09-20T01:05:29.865Z,30.8050
2022-09-20T01:05:41.020Z,30.8720
2022-09-20T01:05:52.211Z,30.8880
2022-09-20T01:06:03.410Z,30.8640
2022-09-20T01:06:14.542Z,30.8360
2022-09-20T01:06:25.682Z,30.8090
2022-09-20T01:06:36.813Z,30.8040
2022-09-20T01:06:47.937Z,30.7530
2022-09-20T01:06:59.084Z,30.7260
2022-09-20T01:07:10.212Z,30.6760
2022-09-20T01:07:21.508Z,30.6590
2022-09-20T01:07:32.603Z,30.7370
2022-09-20T01:07:43.730Z,30.8310
2022-09-20T01:07:54.863Z,30.8200
2022-09-20T01:08:05.983Z,30.7840
2022-09-20T01:08:17.172Z,30.7410
2022-09-20T01:08:28.299Z,30.7310
2022-09-20T01:08:39.419Z,30.6700
2022-09-20T01:08:50.551Z,30.6890
2022-09-20T01:09:01.693Z,30.6720
2022-09-20T01:09:12.862Z,30.6920
2022-09-20T01:09:24.184Z,30.7260
2022-09-20T01:09:35.319Z,30.6920
2022-09-20T01:09:46.468Z,30.6870
2022-09-20T01:09:57.649Z,30.6540
2022-09-20T01:10:08.773Z,30.6380
2022-09-20T01:10:19.904Z,30.6430
2022-09-20T01:10:31.035Z,30.6320
2022-09-20T01:10:42.174Z,30.5660
2022-09-20T01:10:53.338Z,30.5290
2022-09-20T01:11:04.462Z,30.5240
2022-09-20T01:11:15.590Z,30.6170
2022-09-20T01:11:26.869Z,30.6660
2022-09-20T01:11:38.013Z,30.6490
2022-09-20T01:11:49.139Z,30.6760
2022-09-20T01:12:00.280Z,30.6870
2022-09-20T01:12:11.401Z,30.6430
2022-09-20T01:12:22.542Z,30.6070
2022-09-20T01:12:33.676Z,30.5620
2022-09-20T01:12:44.800Z,30.6120
2022-09-20T01:12:55.933Z,30.6170
2022-09-20T01:13:07.090Z,30.5620
2022-09-20T01:13:18.216Z,30.6340
2022-09-20T01:13:29.501Z,30.6810
2022-09-20T01:13:40.680Z,30.7650
2022-09-20T01:13:51.877Z,30.7390
2022-09-20T01:14:02.982Z,30.6720
2022-09-20T01:14:14.110Z,30.6440
2022-09-20T01:14:25.244Z,30.6000
2022-09-20T01:14:36.370Z,30.6150
2022-09-20T01:14:47.531Z,30.5930
2022-09-20T01:14:58.663Z,30.5660
2022-09-20T01:15:09.793Z,30.5600
2022-09-20T01:15:20.930Z,30.5490
2022-09-20T01:15:32.214Z,30.5600
2022-09-20T01:15:43.354Z,30.5720
2022-09-20T01:15:54.482Z,30.5620
2022-09-20T01:16:05.685Z,30.6010
2022-09-20T01:16:16.904Z,30.5890
2022-09-20T01:16:28.105Z,30.6010
2022-09-20T01:16:39.381Z,30.6790
2022-09-20T01:16:50.574Z,30.6950
2022-09-20T01:17:01.750Z,30.7650
2022-09-20T01:17:12.925Z,30.7480
2022-09-20T01:17:24.052Z,30.7780
2022-09-20T01:17:35.397Z,30.7780
2022-09-20T01:17:46.537Z,30.8420
2022-09-20T01:17:57.665Z,30.8570
2022-09-20T01:18:08.719Z,30.8550
2022-09-20T01:18:19.845Z,30.8420
2022-09-20T01:18:30.977Z,30.7590
2022-09-20T01:18:42.125Z,30.6710
2022-09-20T01:18:53.266Z,30.6240
2022-09-20T01:19:04.392Z,30.7590
2022-09-20T01:19:15.510Z,30.8200
2022-09-20T01:19:26.638Z,30.8300
2022-09-20T01:19:37.807Z,30.8680
2022-09-20T01:19:49.100Z,30.8060
2022-09-20T01:20:00.235Z,30.7310
2022-09-20T01:20:11.407Z,30.6810
2022-09-20T01:20:22.540Z,30.8150
2022-09-20T01:20:33.669Z,30.8980
2022-09-20T01:20:44.810Z,30.8760
2022-09-20T01:20:55.945Z,30.8310
2022-09-20T01:21:07.084Z,30.7480
2022-09-20T01:21:18.222Z,30.7590
2022-09-20T01:21:29.341Z,30.8360
2022-09-20T01:21:40.468Z,30.8470
2022-09-20T01:21:51.747Z,30.8360
2022-09-20T01:22:02.883Z,30.8250
2022-09-20T01:22:14.025Z,30.8760
2022-09-20T01:22:25.196Z,30.8360
2022-09-20T01:22:36.294Z,30.8200
2022-09-20T01:22:47.428Z,30.7980
2022-09-20T01:22:58.550Z,30.7750
2022-09-20T01:23:09.684Z,30.7930
2022-09-20T01:23:20.854Z,30.8120
2022-09-20T01:23:31.980Z,30.8120
2022-09-20T01:23:43.112Z,30.7990
2022-09-20T01:23:54.373Z,30.8100
2022-09-20T01:24:05.493Z,30.8500
2022-09-20T01:24:16.631Z,30.7890
2022-09-20T01:24:27.760Z,30.8050
2022-09-20T01:24:38.935Z,30.8550
2022-09-20T01:24:50.166Z,30.8990
2022-09-20T01:25:01.334Z,30.9030
2022-09-20T01:25:12.524Z,30.8810
2022-09-20T01:25:23.729Z,30.8560
2022-09-20T01:25:34.859Z,30.9230
2022-09-20T01:25:45.989Z,30.9390
2022-09-20T01:25:57.275Z,30.9150
2022-09-20T01:26:08.399Z,30.8980
2022-09-20T01:26:19.533Z,30.8890
2022-09-20T01:26:30.669Z,30.8890
2022-09-20T01:26:41.802Z,30.9000
2022-09-20T01:26:52.930Z,30.8860
2022-09-20T01:27:04.046Z,30.8140
2022-09-20T01:27:15.180Z,30.8320
2022-09-20T01:27:26.308Z,30.8660
2022-09-20T01:27:37.492Z,30.9100
2022-09-20T01:27:48.622Z,30.8970
2022-09-20T01:27:59.913Z,30.8630
2022-09-20T01:28:11.088Z,30.8630
2022-09-20T01:28:22.234Z,30.8530
2022-09-20T01:28:33.358Z,30.8360
2022-09-20T01:28:44.478Z,30.8530
2022-09-20T01:28:55.700Z,30.7860
2022-09-20T01:29:06.861Z,30.7640
2022-09-20T01:29:17.981Z,30.7640
2022-09-20T01:29:29.162Z,30.8470
2022-09-20T01:29:40.299Z,30.8170
2022-09-20T01:29:51.459Z,30.8060
2022-09-20T01:30:02.730Z,30.8670
2022-09-20T01:30:13.871Z,30.8620
2022-09-20T01:30:25.011Z,30.8170
2022-09-20T01:30:36.141Z,30.7790
2022-09-20T01:30:47.282Z,30.7260
2022-09-20T01:30:58.451Z,30.7200
2022-09-20T01:31:09.584Z,30.8320
2022-09-20T01:31:20.762Z,30.8940
2022-09-20T01:31:31.910Z,30.8310
2022-09-20T01:31:43.041Z,30.8030
2022-09-20T01:31:54.272Z,30.7720
2022-09-20T01:32:05.662Z,30.7490
2022-09-20T01:32:16.763Z,30.7460
2022-09-20T01:32:27.888Z,30.7480
2022-09-20T01:32:39.022Z,30.7750
2022-09-20T01:32:50.160Z,30.7810
2022-09-20T01:33:01.326Z,30.7750
2022-09-20T01:33:12.456Z,30.7750
2022-09-20T01:33:23.582Z,30.8240
2022-09-20T01:33:34.712Z,30.7890
2022-09-20T01:33:45.849Z,30.7490
2022-09-20T01:33:57.008Z,30.6900
2022-09-20T01:34:08.294Z,30.6760
2022-09-20T01:34:19.447Z,30.6970
2022-09-20T01:34:30.616Z,30.6810
2022-09-20T01:34:41.680Z,30.6480
2022-09-20T01:34:52.848Z,30.6320
2022-09-20T01:35:03.963Z,30.6320
2022-09-20T01:35:15.090Z,30.6390
2022-09-20T01:35:26.229Z,30.7610
2022-09-20T01:35:37.363Z,30.7940
2022-09-20T01:35:48.496Z,30.7720
2022-09-20T01:35:59.627Z,30.7370
2022-09-20T01:36:10.758Z,30.7590
2022-09-20T01:36:22.043Z,30.7420
2022-09-20T01:36:33.179Z,30.7080
2022-09-20T01:36:44.368Z,30.6590
2022-09-20T01:36:55.502Z,30.6230
2022-09-20T01:37:06.631Z,30.6550
2022-09-20T01:37:17.757Z,30.6390
2022-09-20T01:37:28.901Z,30.6200
2022-09-20T01:37:40.048Z,30.6040
2022-09-20T01:37:51.177Z,30.6200
2022-09-20T01:38:02.299Z,30.6490
2022-09-20T01:38:13.431Z,30.6700
2022-09-20T01:38:24.703Z,30.7260
2022-09-20T01:38:35.822Z,30.7590
2022-09-20T01:38:46.963Z,30.7540
2022-09-20T01:38:58.134Z,30.7540
2022-09-20T01:39:09.323Z,30.7260
2022-09-20T01:39:20.449Z,30.7430
2022-09-20T01:39:31.587Z,30.7480
2022-09-20T01:39:42.721Z,30.7220
2022-09-20T01:39:53.874Z,30.7170
2022-09-20T01:40:05.056Z,30.7610
2022-09-20T01:40:16.259Z,30.8870
2022-09-20T01:40:27.541Z,30.8810
2022-09-20T01:40:38.809Z,30.9510
2022-09-20T01:40:49.985Z,30.9770
2022-09-20T01:41:01.123Z,30.9590
2022-09-20T01:41:12.264Z,30.8860
2022-09-20T01:41:23.401Z,30.8740
2022-09-20T01:41:34.536Z,30.8210
2022-09-20T01:41:45.661Z,30.7520
2022-09-20T01:41:56.799Z,30.7030
2022-09-20T01:42:07.941Z,30.6660
2022-09-20T01:42:19.070Z,30.6550
2022-09-20T01:42:30.354Z,30.6490
2022-09-20T01:42:41.493Z,30.6440
2022-09-20T01:42:52.615Z,30.6770
2022-09-20T01:43:03.764Z,30.7220
2022-09-20T01:43:14.882Z,30.7390
2022-09-20T01:43:26.007Z,30.9090
2022-09-20T01:43:37.165Z,30.9760
2022-09-20T01:43:48.293Z,30.9510
2022-09-20T01:43:59.418Z,30.9330
2022-09-20T01:44:10.539Z,30.9380
2022-09-20T01:44:21.669Z,30.9520
2022-09-20T01:44:32.994Z,30.9930
2022-09-20T01:44:44.135Z,31.0420
2022-09-20T01:44:55.295Z,31.0420
2022-09-20T01:45:06.426Z,31.0420
2022-09-20T01:45:17.558Z,31.1060
2022-09-20T01:45:28.807Z,31.1230
2022-09-20T01:45:39.981Z,31.0790
2022-09-20T01:45:51.134Z,31.0810
2022-09-20T01:46:02.316Z,31.0910
2022-09-20T01:46:13.592Z,31.0660
2022-09-20T01:46:24.805Z,31.0770
2022-09-20T01:46:36.116Z,31.0750
2022-09-20T01:46:47.251Z,31.1530
2022-09-20T01:46:58.455Z,31.0920
2022-09-20T01:47:09.650Z,31.0700
2022-09-20T01:47:20.844Z,31.0590
2022-09-20T01:47:31.981Z,31.0540
2022-09-20T01:47:43.117Z,31.0200
2022-09-20T01:47:54.251Z,31.0090
2022-09-20T01:48:05.379Z,31.0660
2022-09-20T01:48:16.538Z,31.0770
2022-09-20T01:48:27.671Z,31.0660
2022-09-20T01:48:38.931Z,31.0770
2022-09-20T01:48:50.126Z,31.0220
2022-09-20T01:49:01.241Z,31.0170
2022-09-20T01:49:12.369Z,31.0280
2022-09-20T01:49:23.503Z,31.0080
2022-09-20T01:49:34.631Z,31.0080
2022-09-20T01:49:45.806Z,31.0650
2022-09-20T01:49:56.974Z,31.0430
2022-09-20T01:50:08.108Z,30.9930
2022-09-20T01:50:19.235Z,30.9710
2022-09-20T01:50:30.365Z,30.9540
2022-09-20T01:50:41.653Z,30.9040
2022-09-20T01:50:52.792Z,30.8670
2022-09-20T01:51:03.918Z,30.9180
2022-09-20T01:51:15.088Z,30.9720
2022-09-20T01:51:26.220Z,30.9720
2022-09-20T01:51:37.333Z,30.9340
2022-09-20T01:51:48.459Z,30.9610
2022-09-20T01:51:59.584Z,30.9560
2022-09-20T01:52:10.767Z,30.9590
2022-09-20T01:52:21.899Z,30.9080
2022-09-20T01:52:33.050Z,30.9300
2022-09-20T01:52:44.299Z,30.9100
2022-09-20T01:52:55.428Z,30.9490
2022-09-20T01:53:06.552Z,30.8810
2022-09-20T01:53:17.671Z,30.8360
2022-09-20T01:53:28.865Z,30.8320
2022-09-20T01:53:40.050Z,30.7840
2022-09-20T01:53:51.183Z,30.7590
2022-09-20T01:54:02.309Z,30.7390
2022-09-20T01:54:13.444Z,30.7440
2022-09-20T01:54:24.572Z,30.7940
2022-09-20T01:54:35.733Z,30.8380
2022-09-20T01:54:47.077Z,30.9140
2022-09-20T01:54:58.227Z,30.9090
2022-09-20T01:55:09.362Z,30.8250
2022-09-20T01:55:20.524Z,30.8040
2022-09-20T01:55:31.655Z,30.7860
2022-09-20T01:55:42.788Z,30.7700
2022-09-20T01:55:53.920Z,30.8050
2022-09-20T01:56:05.081Z,30.8160
2022-09-20T01:56:16.211Z,30.8880
2022-09-20T01:56:27.340Z,30.8830
2022-09-20T01:56:38.482Z,30.8870
2022-09-20T01:56:49.753Z,30.8580
2022-09-20T01:57:00.882Z,30.8450
2022-09-20T01:57:12.024Z,30.8500
2022-09-20T01:57:27.197Z,30.7940
2022-09-20T01:57:38.899Z,30.9100
2022-09-20T01:57:50.040Z,30.8310
2022-09-20T01:58:01.183Z,30.8360
2022-09-20T01:58:12.363Z,30.8150
2022-09-20T01:58:23.491Z,30.7590
2022-09-20T01:58:34.623Z,30.9310
2022-09-20T01:58:46.979Z,30.9870
2022-09-20T01:59:22.708Z,31.1790
2022-09-20T01:59:24.322Z,31.2220
2022-09-20T01:59:35.913Z,31.2990
2022-09-20T01:59:47.088Z,31.2780
2022-09-20T01:59:58.222Z,31.2160
2022-09-20T02:00:09.371Z,31.1840
2022-09-20T02:00:20.502Z,31.1780
2022-09-20T02:00:31.641Z,31.2160
2022-09-20T02:00:42.838Z,31.2160
2022-09-20T02:00:54.031Z,31.1840
2022-09-20T02:01:05.272Z,31.1550
2022-09-20T02:01:16.613Z,31.1850
2022-09-20T02:01:27.821Z,31.1520
2022-09-20T02:01:39.183Z,31.0660
2022-09-20T02:01:50.290Z,31.0080
2022-09-20T02:02:01.554Z,31.0460
2022-09-20T02:02:12.783Z,31.1240
2022-09-20T02:02:24.006Z,31.1240
2022-09-20T02:02:35.272Z,31.1780
2022-09-20T02:02:46.451Z,31.1780
2022-09-20T02:02:57.591Z,31.1890
2022-09-20T02:03:08.715Z,31.2150
2022-09-20T02:03:20.038Z,31.1930
2022-09-20T02:03:31.174Z,31.1640
2022-09-20T02:03:42.301Z,31.1890
2022-09-20T02:03:53.484Z,31.1890
2022-09-20T02:04:04.613Z,31.1480
2022-09-20T02:04:15.748Z,31.1530
2022-09-20T02:04:26.884Z,31.1220
2022-09-20T02:04:38.010Z,31.0720
2022-09-20T02:04:49.172Z,31.0500
2022-09-20T02:05:00.303Z,31.0240
2022-09-20T02:05:11.469Z,30.9930
2022-09-20T02:05:22.743Z,30.9340
2022-09-20T02:05:33.886Z,31.0230
2022-09-20T02:05:45.021Z,31.0610
2022-09-20T02:05:56.144Z,31.0560
2022-09-20T02:06:07.264Z,31.0610
2022-09-20T02:06:18.445Z,31.0900
2022-09-20T02:06:29.571Z,31.0230
2022-09-20T02:06:40.695Z,30.9960
2022-09-20T02:06:51.833Z,30.9670
2022-09-20T02:07:02.961Z,31.0170
2022-09-20T02:07:14.129Z,31.0730
2022-09-20T02:07:25.397Z,31.0790
2022-09-20T02:07:36.553Z,30.9970
2022-09-20T02:07:47.653Z,30.9250
2022-09-20T02:07:58.785Z,30.8770
2022-09-20T02:08:09.914Z,30.7950
2022-09-20T02:08:21.056Z,30.8090
2022-09-20T02:08:32.210Z,30.9540
2022-09-20T02:08:43.339Z,31.0190
2022-09-20T02:08:54.499Z,31.0120
2022-09-20T02:09:05.616Z,30.9880
2022-09-20T02:09:16.746Z,30.9970
2022-09-20T02:09:28.022Z,30.9750
2022-09-20T02:09:39.143Z,31.0020
2022-09-20T02:09:50.292Z,31.0020
2022-09-20T02:10:01.422Z,31.1120
2022-09-20T02:10:12.573Z,31.0450
2022-09-20T02:10:23.697Z,30.9340
2022-09-20T02:10:34.833Z,30.8620
2022-09-20T02:10:45.971Z,30.8450
2022-09-20T02:10:57.103Z,30.8890
2022-09-20T02:11:08.233Z,30.8970
2022-09-20T02:11:19.370Z,30.8630
2022-09-20T02:11:30.655Z,30.8740
2022-09-20T02:11:41.787Z,30.9040
2022-09-20T02:11:52.923Z,30.9490
2022-09-20T02:12:04.051Z,30.9710
2022-09-20T02:12:15.258Z,31.0010
2022-09-20T02:12:29.430Z,31.0540
2022-09-20T02:12:43.481Z,31.1750
2022-09-20T02:12:54.618Z,31.0950
2022-09-20T02:13:05.813Z,31.0120
2022-09-20T02:13:16.936Z,30.9450
2022-09-20T02:13:28.055Z,30.8890
2022-09-20T02:13:39.333Z,30.8360
2022-09-20T02:13:50.473Z,30.8140
2022-09-20T02:14:01.603Z,30.8060
2022-09-20T02:14:12.740Z,30.8900
2022-09-20T02:14:23.890Z,30.9850
2022-09-20T02:14:35.010Z,31.0110
2022-09-20T02:14:46.153Z,30.9860
2022-09-20T02:14:57.283Z,31.0370
2022-09-20T02:15:08.410Z,31.0750
2022-09-20T02:15:19.685Z,31.0950
2022-09-20T02:15:30.827Z,31.0340